Time;durP1;ratioP1;P1;durP2;ratioP2;P2;SDS_P1;SDS_P2;PMS_P1;PMS_P2;Temp;Humidity;BMP_temperature;BMP_pressure;BME280_temperature;BME280_humidity;BME280_pressure;Samples;Min_cycle;Max_cycle;Signal;HPM_P1;HPM_P2
2023/01/14 00:00:07;;;;;;;18.50;1.08;;;;;;;;;;6208843;22;20043;-42
2023/01/14 00:02:35;;;;;;;25.80;1.70;;;;;;;;;;6218424;23;20028;-43
2023/01/14 00:05:03;;;;;;;16.20;1.50;;;;;;;;;;6201026;23;20043;-42
2023/01/14 00:07:31;;;;;;;20.17;1.67;;;;;;;;;;6218283;23;20086;-41
2023/01/14 00:10:00;;;;;;;19.25;1.60;;;;;;;;;;6211356;23;20659;-41
2023/01/14 00:12:28;;;;;;;17.60;1.17;;;;;;;;;;6209133;23;20435;-41
2023/01/14 00:14:55;;;;;;;17.03;1.40;;;;;;;;;;6205739;23;20541;-45
2023/01/14 00:17:23;;;;;;;24.52;2.38;;;;;;;;;;6206701;23;20470;-44
2023/01/14 00:19:51;;;;;;;13.75;1.20;;;;;;;;;;6199437;23;20386;-41
2023/01/14 00:22:18;;;;;;;21.58;3.10;;;;;;;;;;6218124;23;20459;-42
2023/01/14 00:24:47;;;;;;;16.10;1.98;;;;;;;;;;6204057;23;20339;-41
2023/01/14 00:27:16;;;;;;;16.47;2.17;;;;;;;;;;6219065;23;20085;-43
2023/01/14 00:29:43;;;;;;;21.45;2.25;;;;;;;;;;6206500;23;20091;-43
2023/01/14 00:32:11;;;;;;;19.17;1.35;;;;;;;;;;6222657;23;20016;-42
2023/01/14 00:34:39;;;;;;;18.73;1.25;;;;;;;;;;6209116;23;20040;-41
2023/01/14 00:37:08;;;;;;;17.88;2.03;;;;;;;;;;6216689;23;20062;-41
2023/01/14 00:39:36;;;;;;;20.13;2.20;;;;;;;;;;6207751;23;20409;-43
2023/01/14 00:42:04;;;;;;;16.00;1.20;;;;;;;;;;6215811;23;20161;-42
2023/01/14 00:44:33;;;;;;;17.23;1.90;;;;;;;;;;6210963;23;20020;-41
2023/01/14 00:47:00;;;;;;;14.23;1.27;;;;;;;;;;6221771;23;20111;-41
2023/01/14 00:49:28;;;;;;;20.15;1.98;;;;;;;;;;6207591;23;20042;-42
2023/01/14 00:52:01;;;;;;;16.70;1.50;;;;;;;;;;6212302;23;20020;-42
2023/01/14 00:54:29;;;;;;;15.20;1.40;;;;;;;;;;6213865;22;20054;-42
2023/01/14 00:56:57;;;;;;;18.63;1.60;;;;;;;;;;6220563;23;20024;-43
2023/01/14 00:59:25;;;;;;;16.70;1.52;;;;;;;;;;6203879;23;20016;-41
2023/01/14 01:01:55;;;;;;;14.35;1.30;;;;;;;;;;6217414;23;20038;-42
2023/01/14 01:04:23;;;;;;;13.93;1.33;;;;;;;;;;6206086;23;20086;-43
2023/01/14 01:06:51;;;;;;;23.00;1.98;;;;;;;;;;6213132;23;20036;-41
2023/01/14 01:09:19;;;;;;;14.07;1.55;;;;;;;;;;6213113;23;20111;-41
2023/01/14 01:11:46;;;;;;;17.15;1.63;;;;;;;;;;6206156;23;20467;-42
2023/01/14 01:14:19;;;;;;;10.35;1.17;;;;;;;;;;6216961;23;20042;-41
2023/01/14 01:16:47;;;;;;;16.37;1.57;;;;;;;;;;6216094;23;20027;-41
2023/01/14 01:19:16;;;;;;;16.23;2.15;;;;;;;;;;6218259;23;20012;-41
2023/01/14 01:21:43;;;;;;;16.98;1.15;;;;;;;;;;6206646;23;20020;-42
2023/01/14 01:24:11;;;;;;;12.07;1.10;;;;;;;;;;6212935;23;20103;-41
2023/01/14 01:26:40;;;;;;;15.00;1.30;;;;;;;;;;6215512;23;20074;-42
2023/01/14 01:29:07;;;;;;;11.80;1.03;;;;;;;;;;6208459;23;20450;-42
2023/01/14 01:31:35;;;;;;;14.50;1.00;;;;;;;;;;6217435;23;20020;-42
2023/01/14 01:34:03;;;;;;;16.25;1.17;;;;;;;;;;6212349;23;20023;-41
2023/01/14 01:36:32;;;;;;;13.95;1.10;;;;;;;;;;6224445;23;20016;-44
2023/01/14 01:38:59;;;;;;;17.15;1.23;;;;;;;;;;6208226;23;20504;-41
2023/01/14 01:41:28;;;;;;;9.17;1.17;;;;;;;;;;6210198;23;20010;-41
2023/01/14 01:43:57;;;;;;;9.43;0.82;;;;;;;;;;6206859;23;20020;-42
2023/01/14 01:46:25;;;;;;;13.88;1.42;;;;;;;;;;6220039;23;20012;-43
2023/01/14 01:48:53;;;;;;;8.63;1.42;;;;;;;;;;6210369;23;20020;-42
2023/01/14 01:51:23;;;;;;;11.02;1.38;;;;;;;;;;6217041;23;20016;-44
2023/01/14 01:53:54;;;;;;;8.57;1.27;;;;;;;;;;6208007;23;20016;-42
2023/01/14 01:56:23;;;;;;;12.13;1.23;;;;;;;;;;6214222;23;20019;-43
2023/01/14 01:58:52;;;;;;;8.55;1.25;;;;;;;;;;6218256;23;20044;-42
2023/01/14 02:01:20;;;;;;;12.15;1.20;;;;;;;;;;6208991;23;20945;-42
2023/01/14 02:03:48;;;;;;;8.73;0.75;;;;;;;;;;6199074;23;20300;-41
2023/01/14 02:06:16;;;;;;;14.00;1.00;;;;;;;;;;6205925;23;20221;-42
2023/01/14 02:08:46;;;;;;;9.40;1.10;;;;;;;;;;6216783;23;20012;-43
2023/01/14 02:11:22;;;;;;;11.82;0.80;;;;;;;;;;6195136;23;20050;-43
2023/01/14 02:13:56;;;;;;;6.25;0.98;;;;;;;;;;6213634;23;20111;-42
2023/01/14 02:16:27;;;;;;;7.88;0.73;;;;;;;;;;6186550;23;20046;-41
2023/01/14 02:19:04;;;;;;;9.13;0.80;;;;;;;;;;6218087;23;20016;-42
2023/01/14 02:21:34;;;;;;;6.15;0.77;;;;;;;;;;6191903;23;20023;-43
2023/01/14 02:24:32;;;;;;;8.30;0.68;;;;;;;;;;6225400;23;20509;-43
2023/01/14 02:27:14;;;;;;;4.70;0.40;;;;;;;;;;6212471;23;20043;-42
2023/01/14 02:29:54;;;;;;;9.52;0.70;;;;;;;;;;6191254;23;20016;-41
2023/01/14 02:32:26;;;;;;;7.30;0.53;;;;;;;;;;6210819;23;20016;-42
2023/01/14 02:34:58;;;;;;;5.00;0.40;;;;;;;;;;6223973;23;20016;-42
2023/01/14 02:37:29;;;;;;;5.32;0.52;;;;;;;;;;6190363;23;20016;-42
2023/01/14 02:40:01;;;;;;;11.95;0.50;;;;;;;;;;6172295;23;20447;-40
2023/01/14 02:45:24;;;;;;;3.53;0.50;;;;;;;;;;6221536;23;20397;-41
2023/01/14 02:47:52;;;;;;;3.55;0.40;;;;;;;;;;6221674;23;20087;-42
2023/01/14 02:50:20;;;;;;;4.72;0.45;;;;;;;;;;6205898;23;20478;-42
2023/01/14 02:52:48;;;;;;;6.03;0.38;;;;;;;;;;6198097;23;20544;-42
2023/01/14 02:55:28;;;;;;;2.50;0.22;;;;;;;;;;6209971;23;20047;-42
2023/01/14 02:58:01;;;;;;;6.73;0.40;;;;;;;;;;6219279;23;20016;-41
2023/01/14 03:00:35;;;;;;;3.90;0.40;;;;;;;;;;6216256;23;20016;-41
2023/01/14 03:03:12;;;;;;;3.30;0.30;;;;;;;;;;6210553;23;20469;-41
2023/01/14 03:05:44;;;;;;;4.40;0.20;;;;;;;;;;6218166;23;20012;-41
2023/01/14 03:08:17;;;;;;;6.38;0.50;;;;;;;;;;6209483;23;20008;-41
2023/01/14 03:10:47;;;;;;;3.27;0.20;;;;;;;;;;6219995;23;20430;-41
2023/01/14 03:13:17;;;;;;;4.93;0.47;;;;;;;;;;6220305;23;20016;-41
2023/01/14 03:15:48;;;;;;;5.43;0.50;;;;;;;;;;6208928;23;20755;-40
2023/01/14 03:18:20;;;;;;;3.30;0.20;;;;;;;;;;6216937;23;20392;-41
2023/01/14 03:20:49;;;;;;;5.80;0.80;;;;;;;;;;6211797;23;20020;-41
2023/01/14 03:23:19;;;;;;;5.10;0.30;;;;;;;;;;6220056;23;20043;-42
2023/01/14 03:25:47;;;;;;;1.45;0.20;;;;;;;;;;6207869;23;20091;-41
2023/01/14 03:28:19;;;;;;;3.35;0.20;;;;;;;;;;6220071;23;20100;-42
2023/01/14 03:30:49;;;;;;;2.45;0.40;;;;;;;;;;6220991;23;20446;-41
2023/01/14 03:33:19;;;;;;;5.15;0.30;;;;;;;;;;6206819;23;20409;-41
2023/01/14 03:35:48;;;;;;;3.90;0.30;;;;;;;;;;6221034;23;20047;-42
2023/01/14 03:38:17;;;;;;;7.10;0.40;;;;;;;;;;6210603;23;20561;-46
2023/01/14 03:40:46;;;;;;;1.75;0.20;;;;;;;;;;6215948;23;20044;-41
2023/01/14 03:43:16;;;;;;;2.90;0.30;;;;;;;;;;6211731;23;20326;-41
2023/01/14 03:45:45;;;;;;;3.75;0.40;;;;;;;;;;6214279;23;20058;-43
2023/01/14 03:48:14;;;;;;;4.77;0.30;;;;;;;;;;6208718;23;20682;-41
2023/01/14 03:50:46;;;;;;;3.22;0.40;;;;;;;;;;6222496;23;20047;-41
2023/01/14 03:53:18;;;;;;;2.38;0.40;;;;;;;;;;6211647;23;20099;-42
2023/01/14 03:55:51;;;;;;;4.30;0.30;;;;;;;;;;6222511;23;20016;-40
2023/01/14 03:58:24;;;;;;;4.05;0.30;;;;;;;;;;6204416;23;20017;-41
2023/01/14 04:00:53;;;;;;;2.77;0.20;;;;;;;;;;6213990;23;20040;-42
2023/01/14 04:03:23;;;;;;;2.45;0.40;;;;;;;;;;6211981;23;20022;-43
2023/01/14 04:05:52;;;;;;;2.47;0.20;;;;;;;;;;6212107;23;20562;-41
2023/01/14 04:08:20;;;;;;;6.05;0.25;;;;;;;;;;6209571;23;20044;-41
2023/01/14 04:10:48;;;;;;;3.83;0.30;;;;;;;;;;6208313;23;20020;-40
2023/01/14 04:16:02;;;;;;;1.80;0.20;;;;;;;;;;6211834;23;20016;-41
2023/01/14 04:18:31;;;;;;;4.43;0.38;;;;;;;;;;6217449;23;20433;-40
2023/01/14 04:20:59;;;;;;;3.00;0.30;;;;;;;;;;6219309;23;20020;-41
2023/01/14 04:23:27;;;;;;;5.25;0.40;;;;;;;;;;6219088;23;20062;-41
2023/01/14 04:25:55;;;;;;;3.33;0.40;;;;;;;;;;6212199;23;20039;-44
2023/01/14 04:28:23;;;;;;;6.20;0.30;;;;;;;;;;6211694;23;20087;-41
2023/01/14 04:30:51;;;;;;;4.07;0.40;;;;;;;;;;6209352;23;20091;-42
2023/01/14 04:33:18;;;;;;;6.85;0.30;;;;;;;;;;6212324;23;20016;-44
2023/01/14 04:35:49;;;;;;;3.72;0.40;;;;;;;;;;6209826;23;20012;-41
2023/01/14 04:38:17;;;;;;;4.47;0.50;;;;;;;;;;6223168;23;20012;-41
2023/01/14 04:40:45;;;;;;;2.95;0.25;;;;;;;;;;6214358;23;20016;-41
2023/01/14 04:43:23;;;;;;;1.73;0.20;;;;;;;;;;6210781;23;20008;-41
2023/01/14 04:45:51;;;;;;;6.13;0.30;;;;;;;;;;6218026;23;20055;-40
2023/01/14 04:48:19;;;;;;;2.53;0.30;;;;;;;;;;6214964;23;20099;-42
2023/01/14 04:50:50;;;;;;;3.10;0.30;;;;;;;;;;6215369;23;20012;-43
2023/01/14 04:53:20;;;;;;;4.03;0.20;;;;;;;;;;6205049;22;20439;-43
2023/01/14 04:55:49;;;;;;;4.32;0.20;;;;;;;;;;6217344;23;20020;-44
2023/01/14 04:58:17;;;;;;;2.75;0.20;;;;;;;;;;6210279;23;20090;-41
2023/01/14 05:00:45;;;;;;;6.70;0.30;;;;;;;;;;6216699;23;20020;-41
2023/01/14 05:03:15;;;;;;;3.37;0.53;;;;;;;;;;6213236;23;20016;-41
2023/01/14 05:05:43;;;;;;;4.60;0.20;;;;;;;;;;6207044;23;20020;-42
2023/01/14 05:08:12;;;;;;;3.08;0.20;;;;;;;;;;6218335;23;20091;-41
2023/01/14 05:10:40;;;;;;;5.20;0.40;;;;;;;;;;6211417;23;20043;-42
2023/01/14 05:13:08;;;;;;;3.90;0.50;;;;;;;;;;6217492;23;20093;-41
2023/01/14 05:15:41;;;;;;;2.93;0.30;;;;;;;;;;6203633;23;20074;-40
2023/01/14 05:18:09;;;;;;;1.80;0.30;;;;;;;;;;6222011;23;20078;-41
2023/01/14 05:20:37;;;;;;;3.45;0.63;;;;;;;;;;6210669;23;20096;-42
2023/01/14 05:23:06;;;;;;;2.67;0.30;;;;;;;;;;6216135;23;20027;-43
2023/01/14 05:25:35;;;;;;;3.92;0.30;;;;;;;;;;6207142;23;20028;-41
2023/01/14 05:28:03;;;;;;;3.23;0.40;;;;;;;;;;6218840;23;20096;-42
2023/01/14 05:30:31;;;;;;;3.17;0.57;;;;;;;;;;6201028;23;20016;-42
2023/01/14 05:33:00;;;;;;;4.10;0.20;;;;;;;;;;6219411;23;20048;-41
2023/01/14 05:35:28;;;;;;;2.67;0.30;;;;;;;;;;6200471;23;20024;-42
2023/01/14 05:37:55;;;;;;;3.88;0.43;;;;;;;;;;6222751;23;20012;-43
2023/01/14 05:40:23;;;;;;;3.80;0.40;;;;;;;;;;6211858;23;20046;-41
2023/01/14 05:45:48;;;;;;;4.35;0.30;;;;;;;;;;6210284;23;20351;-41
2023/01/14 05:48:16;;;;;;;3.47;0.40;;;;;;;;;;6214285;22;20127;-42
2023/01/14 05:50:44;;;;;;;3.50;0.20;;;;;;;;;;6221420;23;20047;-44
2023/01/14 05:53:11;;;;;;;3.47;0.30;;;;;;;;;;6198477;23;20008;-42
2023/01/14 05:55:39;;;;;;;3.58;0.30;;;;;;;;;;6216539;23;20486;-42
2023/01/14 05:58:08;;;;;;;3.17;0.30;;;;;;;;;;6208801;23;20040;-41
2023/01/14 06:06:24;;;;;;;4.53;0.50;;;;;;;;;;6211751;23;20012;-46
2023/01/14 06:08:55;;;;;;;5.57;0.40;;;;;;;;;;6215503;23;20027;-41
2023/01/14 06:11:23;;;;;;;4.03;0.40;;;;;;;;;;6219772;23;20459;-43
2023/01/14 06:13:54;;;;;;;2.40;0.28;;;;;;;;;;6213836;23;20020;-43
2023/01/14 06:16:22;;;;;;;4.32;0.40;;;;;;;;;;6219298;23;20030;-42
2023/01/14 06:18:50;;;;;;;3.60;0.30;;;;;;;;;;6208626;23;20051;-41
2023/01/14 06:21:18;;;;;;;3.00;0.40;;;;;;;;;;6218601;23;20443;-41
2023/01/14 06:23:46;;;;;;;5.18;0.45;;;;;;;;;;6206130;23;20588;-42
2023/01/14 06:26:15;;;;;;;3.05;0.35;;;;;;;;;;6217586;23;20012;-43
2023/01/14 06:28:45;;;;;;;3.60;0.40;;;;;;;;;;6210137;23;20070;-42
2023/01/14 06:31:15;;;;;;;7.20;0.50;;;;;;;;;;6221386;23;20463;-41
2023/01/14 06:33:43;;;;;;;4.55;0.40;;;;;;;;;;6210632;23;20027;-42
2023/01/14 06:36:11;;;;;;;6.10;0.70;;;;;;;;;;6222306;23;20012;-41
2023/01/14 06:38:39;;;;;;;2.65;0.40;;;;;;;;;;6208684;23;20043;-42
2023/01/14 06:41:08;;;;;;;4.38;0.70;;;;;;;;;;6222581;23;20066;-41
2023/01/14 06:43:36;;;;;;;5.27;0.70;;;;;;;;;;6205569;23;20251;-41
2023/01/14 06:46:04;;;;;;;6.68;0.80;;;;;;;;;;6221679;23;20078;-43
2023/01/14 06:48:33;;;;;;;6.88;0.50;;;;;;;;;;6217261;23;20037;-41
2023/01/14 06:51:03;;;;;;;2.30;0.30;;;;;;;;;;6213180;22;20605;-41
2023/01/14 06:53:34;;;;;;;4.35;0.50;;;;;;;;;;6214826;22;20345;-42
2023/01/14 06:56:02;;;;;;;8.30;0.37;;;;;;;;;;6217500;22;20044;-43
2023/01/14 06:58:30;;;;;;;5.10;0.60;;;;;;;;;;6211940;23;20070;-41
2023/01/14 07:01:01;;;;;;;6.30;0.75;;;;;;;;;;6217089;23;20066;-41
2023/01/14 07:03:29;;;;;;;2.72;0.40;;;;;;;;;;6210474;23;20340;-44
2023/01/14 07:06:00;;;;;;;5.18;0.57;;;;;;;;;;6204852;23;20406;-42
2023/01/14 07:08:29;;;;;;;6.87;0.40;;;;;;;;;;6216203;23;20317;-44
2023/01/14 07:10:57;;;;;;;8.63;0.80;;;;;;;;;;6205932;23;20071;-41
2023/01/14 07:13:24;;;;;;;2.65;0.73;;;;;;;;;;6219138;23;20016;-41
2023/01/14 07:15:52;;;;;;;5.70;0.68;;;;;;;;;;6200420;23;20020;-41
2023/01/14 07:18:20;;;;;;;7.53;0.30;;;;;;;;;;6217577;23;20406;-41
2023/01/14 07:20:48;;;;;;;6.47;0.50;;;;;;;;;;6207020;23;20340;-41
2023/01/14 07:23:17;;;;;;;4.53;0.50;;;;;;;;;;6217702;23;20111;-44
2023/01/14 07:25:45;;;;;;;5.38;0.52;;;;;;;;;;6196670;23;20488;-42
2023/01/14 07:28:13;;;;;;;3.78;0.50;;;;;;;;;;6211124;23;20718;-41
2023/01/14 07:30:40;;;;;;;4.07;0.40;;;;;;;;;;6203734;23;20430;-44
2023/01/14 07:33:08;;;;;;;5.57;0.50;;;;;;;;;;6213284;23;20343;-42
2023/01/14 07:35:35;;;;;;;4.47;0.50;;;;;;;;;;6201838;23;20478;-42
2023/01/14 07:38:03;;;;;;;3.67;0.20;;;;;;;;;;6215419;23;20020;-42
2023/01/14 07:40:32;;;;;;;3.08;0.40;;;;;;;;;;6201014;23;20020;-42
2023/01/14 07:43:00;;;;;;;9.25;0.60;;;;;;;;;;6219778;23;20490;-41
2023/01/14 07:45:29;;;;;;;5.53;0.60;;;;;;;;;;6204896;23;20771;-41
2023/01/14 07:48:00;;;;;;;2.67;0.40;;;;;;;;;;6209021;23;20090;-41
2023/01/14 07:50:27;;;;;;;4.00;0.85;;;;;;;;;;6215244;23;20070;-44
2023/01/14 07:52:56;;;;;;;2.88;0.30;;;;;;;;;;6205613;23;20091;-44
2023/01/14 07:55:24;;;;;;;3.63;0.28;;;;;;;;;;6215848;23;20345;-41
2023/01/14 07:57:54;;;;;;;5.23;0.30;;;;;;;;;;6206489;23;20213;-41
2023/01/14 08:00:21;;;;;;;3.55;0.52;;;;;;;;;;6220231;23;20016;-42
2023/01/14 08:02:49;;;;;;;2.13;0.20;;;;;;;;;;6215758;23;20430;-41
2023/01/14 08:05:16;;;;;;;1.67;0.20;;;;;;;;;;6221431;23;20012;-41
2023/01/14 08:07:44;;;;;;;3.00;0.30;;;;;;;;;;6200133;23;20044;-41
2023/01/14 08:10:12;;;;;;;5.57;0.30;;;;;;;;;;6218118;23;20332;-41
2023/01/14 08:12:40;;;;;;;1.95;0.30;;;;;;;;;;6206028;23;20036;-41
2023/01/14 08:15:11;;;;;;;2.13;0.30;;;;;;;;;;6220347;23;20325;-43
2023/01/14 08:17:38;;;;;;;5.28;0.40;;;;;;;;;;6211816;23;20103;-42
2023/01/14 08:20:10;;;;;;;3.60;0.32;;;;;;;;;;6218518;23;20111;-43
2023/01/14 08:22:38;;;;;;;4.13;0.50;;;;;;;;;;6220056;23;20094;-42
2023/01/14 08:25:06;;;;;;;2.97;0.30;;;;;;;;;;6214782;23;20095;-41
2023/01/14 08:27:34;;;;;;;3.97;0.50;;;;;;;;;;6216456;23;20074;-43
2023/01/14 08:30:02;;;;;;;3.30;0.52;;;;;;;;;;6221251;23;20035;-44
2023/01/14 08:32:31;;;;;;;3.55;0.50;;;;;;;;;;6204790;23;20031;-43
2023/01/14 08:34:58;;;;;;;2.00;0.30;;;;;;;;;;6214130;23;20026;-41
2023/01/14 08:37:27;;;;;;;1.60;0.20;;;;;;;;;;6209780;23;20016;-42
2023/01/14 08:39:54;;;;;;;3.17;0.32;;;;;;;;;;6221411;23;20694;-42
2023/01/14 08:42:22;;;;;;;2.95;0.35;;;;;;;;;;6210298;23;20043;-44
2023/01/14 08:44:51;;;;;;;3.47;0.38;;;;;;;;;;6217706;23;20452;-42
2023/01/14 08:47:19;;;;;;;3.43;0.40;;;;;;;;;;6221487;23;20091;-44
2023/01/14 08:49:48;;;;;;;3.60;0.73;;;;;;;;;;6207150;23;20047;-44
2023/01/14 08:52:15;;;;;;;4.10;0.30;;;;;;;;;;6220419;23;20092;-41
2023/01/14 08:54:43;;;;;;;4.10;0.60;;;;;;;;;;6199312;23;20213;-41
2023/01/14 08:57:10;;;;;;;1.77;0.30;;;;;;;;;;6213608;23;20044;-45
2023/01/14 08:59:39;;;;;;;3.87;0.50;;;;;;;;;;6207775;23;20012;-42
2023/01/14 09:02:07;;;;;;;4.00;0.32;;;;;;;;;;6218415;23;20042;-44
2023/01/14 09:04:35;;;;;;;2.83;0.28;;;;;;;;;;6203440;23;20074;-42
2023/01/14 09:18:11;;;;;;;1.80;0.22;;;;;;;;;;6214653;23;20016;-42
2023/01/14 09:20:40;;;;;;;6.15;0.82;;;;;;;;;;6209098;23;20016;-41
2023/01/14 09:23:10;;;;;;;3.53;0.50;;;;;;;;;;6217503;23;20012;-43
2023/01/14 09:25:37;;;;;;;3.20;0.40;;;;;;;;;;6203357;23;20016;-42
2023/01/14 09:28:05;;;;;;;3.13;0.30;;;;;;;;;;6219076;23;20047;-41
2023/01/14 09:30:33;;;;;;;3.35;0.20;;;;;;;;;;6211409;23;20451;-41
2023/01/14 09:33:01;;;;;;;2.45;0.35;;;;;;;;;;6221264;23;20382;-42
2023/01/14 09:35:29;;;;;;;2.50;0.20;;;;;;;;;;6206930;23;20261;-42
2023/01/14 09:37:57;;;;;;;1.90;0.20;;;;;;;;;;6208706;23;20417;-42
2023/01/14 09:40:26;;;;;;;2.53;0.20;;;;;;;;;;6210334;23;20016;-43
2023/01/14 09:42:54;;;;;;;2.33;0.20;;;;;;;;;;6216994;23;20046;-43
2023/01/14 09:45:24;;;;;;;1.10;0.20;;;;;;;;;;6207670;23;20075;-43
2023/01/14 09:47:53;;;;;;;1.42;0.20;;;;;;;;;;6220763;23;20042;-43
2023/01/14 09:50:21;;;;;;;1.87;0.30;;;;;;;;;;6205960;23;20347;-41
2023/01/14 09:52:53;;;;;;;3.25;0.28;;;;;;;;;;6210914;23;20375;-42
2023/01/14 09:55:25;;;;;;;0.95;0.20;;;;;;;;;;6210456;23;20103;-42
2023/01/14 09:57:56;;;;;;;1.20;0.20;;;;;;;;;;6211758;23;20019;-41
2023/01/14 10:00:27;;;;;;;1.10;0.20;;;;;;;;;;6211814;23;20051;-44
2023/01/14 10:03:02;;;;;;;1.10;0.20;;;;;;;;;;6215549;22;20401;-42
2023/01/14 10:05:32;;;;;;;1.58;0.22;;;;;;;;;;6218650;23;20055;-44
2023/01/14 10:08:01;;;;;;;1.70;0.30;;;;;;;;;;6204686;23;20048;-43
2023/01/14 10:10:31;;;;;;;2.17;0.30;;;;;;;;;;6215227;23;20059;-40
2023/01/14 10:13:02;;;;;;;1.92;0.30;;;;;;;;;;6213097;22;20047;-41
2023/01/14 10:15:34;;;;;;;2.27;0.40;;;;;;;;;;6219481;23;20502;-41
2023/01/14 10:18:05;;;;;;;4.68;0.28;;;;;;;;;;6218103;23;20181;-44
2023/01/14 10:20:35;;;;;;;2.97;0.57;;;;;;;;;;6204864;23;20035;-42
2023/01/14 10:23:06;;;;;;;4.43;0.40;;;;;;;;;;6222157;23;20643;-42
2023/01/14 10:25:34;;;;;;;4.68;0.43;;;;;;;;;;6211516;23;20550;-41
2023/01/14 10:28:03;;;;;;;3.77;0.30;;;;;;;;;;6200236;23;20020;-46
2023/01/14 10:30:32;;;;;;;6.45;1.00;;;;;;;;;;6190001;23;20016;-40
2023/01/14 10:33:02;;;;;;;3.33;0.50;;;;;;;;;;6213987;23;20012;-42
2023/01/14 10:35:32;;;;;;;6.38;0.95;;;;;;;;;;6202688;23;20722;-42
2023/01/14 10:38:00;;;;;;;9.27;0.50;;;;;;;;;;6216666;23;20012;-42
2023/01/14 10:40:29;;;;;;;10.57;1.67;;;;;;;;;;6196798;23;20519;-41
2023/01/14 10:42:58;;;;;;;8.18;0.82;;;;;;;;;;6211674;23;20024;-41
2023/01/14 10:45:27;;;;;;;11.00;1.00;;;;;;;;;;6201499;23;20012;-43
2023/01/14 10:48:02;;;;;;;6.22;0.80;;;;;;;;;;6211583;23;20040;-41
2023/01/14 10:50:30;;;;;;;5.60;0.93;;;;;;;;;;6209526;23;20016;-41
2023/01/14 10:53:14;;;;;;;10.30;1.10;;;;;;;;;;6206973;23;20167;-41
2023/01/14 10:55:46;;;;;;;7.20;0.95;;;;;;;;;;6219622;23;20040;-41
2023/01/14 10:58:17;;;;;;;7.38;0.80;;;;;;;;;;6206130;23;20043;-41
2023/01/14 11:00:50;;;;;;;5.20;0.73;;;;;;;;;;6213898;23;20020;-42
2023/01/14 11:03:23;;;;;;;5.80;0.47;;;;;;;;;;6208269;23;20012;-41
2023/01/14 11:05:54;;;;;;;4.97;0.67;;;;;;;;;;6207400;23;20069;-41
2023/01/14 11:08:23;;;;;;;4.32;0.80;;;;;;;;;;6215451;23;20058;-41
2023/01/14 11:10:55;;;;;;;6.65;0.50;;;;;;;;;;6203419;23;20020;-43
2023/01/14 11:13:25;;;;;;;8.57;0.90;;;;;;;;;;6213581;23;20471;-41
2023/01/14 11:15:55;;;;;;;3.88;0.90;;;;;;;;;;6207427;23;20020;-41
2023/01/14 11:18:25;;;;;;;9.97;1.17;;;;;;;;;;6218368;23;20023;-41
2023/01/14 11:20:58;;;;;;;11.68;0.82;;;;;;;;;;6215158;22;20019;-41
2023/01/14 11:23:28;;;;;;;10.85;1.20;;;;;;;;;;6212338;23;20012;-42
2023/01/14 11:25:56;;;;;;;9.07;0.98;;;;;;;;;;6216278;23;20030;-41
2023/01/14 11:28:24;;;;;;;4.70;0.77;;;;;;;;;;6211866;23;20748;-41
2023/01/14 11:30:53;;;;;;;6.53;1.03;;;;;;;;;;6208488;23;20095;-41
2023/01/14 11:33:24;;;;;;;8.35;0.93;;;;;;;;;;6214527;23;20520;-42
2023/01/14 11:36:19;;;;;;;6.95;1.00;;;;;;;;;;6221408;23;20024;-42
2023/01/14 11:38:47;;;;;;;9.75;1.45;;;;;;;;;;6208983;23;20066;-43
2023/01/14 11:41:32;;;;;;;2.65;0.47;;;;;;;;;;6221315;23;20016;-41
2023/01/14 11:44:00;;;;;;;6.80;0.90;;;;;;;;;;6196905;23;20600;-43
2023/01/14 11:46:29;;;;;;;4.28;0.80;;;;;;;;;;6201760;23;20020;-41
2023/01/14 11:48:59;;;;;;;7.07;0.98;;;;;;;;;;6202225;23;20070;-41
2023/01/14 11:51:29;;;;;;;7.00;0.80;;;;;;;;;;6202416;23;20031;-41
2023/01/14 11:53:57;;;;;;;7.75;0.85;;;;;;;;;;6211451;23;20066;-41
2023/01/14 11:56:29;;;;;;;8.27;0.93;;;;;;;;;;6200015;23;20442;-43
2023/01/14 11:58:56;;;;;;;6.35;0.65;;;;;;;;;;6211525;23;20026;-41
2023/01/14 12:01:27;;;;;;;5.78;0.90;;;;;;;;;;6203006;23;20715;-45
2023/01/14 12:04:02;;;;;;;4.85;0.65;;;;;;;;;;6211588;23;20360;-42
2023/01/14 12:06:32;;;;;;;5.03;0.82;;;;;;;;;;6189550;22;20358;-42
2023/01/14 12:09:02;;;;;;;5.17;0.73;;;;;;;;;;6196816;23;20074;-41
2023/01/14 12:11:32;;;;;;;7.75;0.80;;;;;;;;;;6189016;22;20091;-41
2023/01/14 12:16:52;;;;;;;8.65;1.35;;;;;;;;;;6204455;23;20087;-42
2023/01/14 12:19:25;;;;;;;6.00;1.15;;;;;;;;;;6206578;23;20435;-42
2023/01/14 12:21:57;;;;;;;6.03;0.70;;;;;;;;;;6209519;23;20439;-42
2023/01/14 12:24:27;;;;;;;7.95;1.00;;;;;;;;;;6204313;23;20102;-41
2023/01/14 12:26:56;;;;;;;6.60;0.60;;;;;;;;;;6206357;23;20020;-41
2023/01/14 12:29:27;;;;;;;6.07;0.70;;;;;;;;;;6207645;23;20570;-42
2023/01/14 12:32:00;;;;;;;3.92;0.73;;;;;;;;;;6213455;23;20020;-44
2023/01/14 12:34:34;;;;;;;7.67;0.90;;;;;;;;;;6196225;23;20046;-41
2023/01/14 12:37:06;;;;;;;3.75;0.80;;;;;;;;;;6205249;23;20065;-42
2023/01/14 12:48:07;;;;;;;5.97;0.67;;;;;;;;;;6209784;23;20016;-42
2023/01/14 12:50:37;;;;;;;3.53;0.43;;;;;;;;;;6213750;23;20474;-40
2023/01/14 12:53:05;;;;;;;4.97;0.65;;;;;;;;;;6188130;23;20370;-41
2023/01/14 12:55:34;;;;;;;6.43;0.55;;;;;;;;;;6203797;23;20023;-41
2023/01/14 12:58:03;;;;;;;3.08;0.30;;;;;;;;;;6202976;23;20046;-41
2023/01/14 13:00:32;;;;;;;3.63;0.37;;;;;;;;;;6207183;23;20012;-42
2023/01/14 13:03:02;;;;;;;3.92;0.47;;;;;;;;;;6200089;23;20024;-40
2023/01/14 13:05:31;;;;;;;5.53;0.30;;;;;;;;;;6207799;23;20393;-41
2023/01/14 13:08:01;;;;;;;6.47;0.50;;;;;;;;;;6206997;23;20044;-42
2023/01/14 13:10:31;;;;;;;3.47;0.47;;;;;;;;;;6211596;23;20028;-42
2023/01/14 13:13:00;;;;;;;9.13;0.67;;;;;;;;;;6218978;23;20012;-41
2023/01/14 13:15:30;;;;;;;2.25;0.32;;;;;;;;;;6201921;23;20024;-43
2023/01/14 13:17:59;;;;;;;5.43;0.47;;;;;;;;;;6211301;23;20069;-41
2023/01/14 13:20:50;;;;;;;3.42;0.40;;;;;;;;;;6207872;23;20115;-41
2023/01/14 13:23:33;;;;;;;3.35;0.50;;;;;;;;;;6218435;23;20012;-41
2023/01/14 13:26:02;;;;;;;5.20;0.63;;;;;;;;;;6195013;22;20074;-42
2023/01/14 13:28:31;;;;;;;2.10;0.35;;;;;;;;;;6209336;23;20020;-43
2023/01/14 13:31:15;;;;;;;2.70;0.30;;;;;;;;;;6213356;23;20016;-43
2023/01/14 13:33:43;;;;;;;3.97;0.55;;;;;;;;;;6197184;22;20038;-43
2023/01/14 13:36:14;;;;;;;4.68;0.60;;;;;;;;;;6209315;23;20050;-42
2023/01/14 13:38:43;;;;;;;3.70;0.60;;;;;;;;;;6206414;23;20012;-40
2023/01/14 13:41:13;;;;;;;3.38;0.60;;;;;;;;;;6210716;22;20090;-41
2023/01/14 13:43:47;;;;;;;3.15;0.50;;;;;;;;;;6202279;22;20016;-43
2023/01/14 13:46:23;;;;;;;3.90;0.35;;;;;;;;;;6208259;23;20023;-41
2023/01/14 13:48:52;;;;;;;3.60;0.57;;;;;;;;;;6215304;23;20015;-41
2023/01/14 13:51:25;;;;;;;5.33;0.50;;;;;;;;;;6201776;23;20062;-41
2023/01/14 13:53:56;;;;;;;5.05;0.30;;;;;;;;;;6213512;23;20020;-40
2023/01/14 13:56:33;;;;;;;2.60;0.40;;;;;;;;;;6204475;23;20038;-43
2023/01/14 13:59:01;;;;;;;1.63;0.30;;;;;;;;;;6214747;23;20012;-41
2023/01/14 14:01:45;;;;;;;3.90;0.40;;;;;;;;;;6201250;23;20024;-40
2023/01/14 14:04:13;;;;;;;1.63;0.30;;;;;;;;;;6220186;23;20024;-41
2023/01/14 14:06:45;;;;;;;2.28;0.20;;;;;;;;;;6213420;23;20439;-40
2023/01/14 14:09:32;;;;;;;1.70;0.40;;;;;;;;;;6207986;23;20494;-40
2023/01/14 14:12:06;;;;;;;1.77;0.20;;;;;;;;;;6216312;23;20727;-42
2023/01/14 14:14:34;;;;;;;2.35;0.20;;;;;;;;;;6207070;23;20048;-42
2023/01/14 14:17:04;;;;;;;1.27;0.20;;;;;;;;;;6210722;23;20016;-43
2023/01/14 14:19:33;;;;;;;2.15;0.20;;;;;;;;;;6192927;23;20051;-44
2023/01/14 14:22:22;;;;;;;1.45;0.20;;;;;;;;;;6205780;23;20066;-42
2023/01/14 14:24:53;;;;;;;1.73;0.20;;;;;;;;;;6213964;23;20030;-41
2023/01/14 14:27:28;;;;;;;4.65;0.22;;;;;;;;;;6208160;23;20016;-42
2023/01/14 14:29:58;;;;;;;1.47;0.20;;;;;;;;;;6216236;23;20054;-43
2023/01/14 14:32:28;;;;;;;1.45;0.30;;;;;;;;;;6205819;23;20095;-41
2023/01/14 14:35:10;;;;;;;3.08;0.30;;;;;;;;;;6217866;23;20022;-46
2023/01/14 14:37:39;;;;;;;2.65;0.60;;;;;;;;;;6214239;22;20058;-42
2023/01/14 14:40:16;;;;;;;3.95;0.88;;;;;;;;;;6187954;23;20536;-41
2023/01/14 14:42:46;;;;;;;1.83;0.30;;;;;;;;;;6210600;23;20473;-41
2023/01/14 14:45:27;;;;;;;4.88;0.32;;;;;;;;;;6215765;23;20024;-44
2023/01/14 14:47:55;;;;;;;2.05;0.30;;;;;;;;;;6218083;23;20167;-42
2023/01/14 14:50:26;;;;;;;2.17;0.20;;;;;;;;;;6202426;23;20034;-42
2023/01/14 14:52:54;;;;;;;2.83;0.30;;;;;;;;;;6216584;23;20019;-45
2023/01/14 14:55:22;;;;;;;2.33;0.20;;;;;;;;;;6204297;23;20451;-41
2023/01/14 14:57:51;;;;;;;1.90;0.20;;;;;;;;;;6214096;23;20804;-41
2023/01/14 15:00:20;;;;;;;1.65;0.20;;;;;;;;;;6214759;23;20020;-41
2023/01/14 15:02:49;;;;;;;3.50;0.40;;;;;;;;;;6217467;23;20043;-41
2023/01/14 15:05:20;;;;;;;4.15;0.30;;;;;;;;;;6210436;23;20232;-41
2023/01/14 15:07:48;;;;;;;2.23;0.30;;;;;;;;;;6217939;23;20012;-41
2023/01/14 15:10:17;;;;;;;2.55;0.30;;;;;;;;;;6211308;23;20560;-43
2023/01/14 15:12:44;;;;;;;2.78;0.20;;;;;;;;;;6207207;23;20463;-42
2023/01/14 15:15:19;;;;;;;2.20;0.30;;;;;;;;;;6218944;23;20043;-41
2023/01/14 15:17:47;;;;;;;3.28;0.30;;;;;;;;;;6210217;22;20654;-43
2023/01/14 15:20:16;;;;;;;7.20;0.53;;;;;;;;;;6222991;23;20066;-42
2023/01/14 15:22:44;;;;;;;3.83;0.32;;;;;;;;;;6213226;23;20447;-41
2023/01/14 15:25:15;;;;;;;5.38;0.60;;;;;;;;;;6220911;23;20038;-44
2023/01/14 15:27:43;;;;;;;4.85;0.65;;;;;;;;;;6218041;23;20048;-44
2023/01/14 15:30:26;;;;;;;3.97;0.30;;;;;;;;;;6211447;23;20443;-41
2023/01/14 15:32:55;;;;;;;3.10;0.50;;;;;;;;;;6219923;23;20070;-40